Time;durP1;ratioP1;P1;durP2;ratioP2;P2;SDS_P1;SDS_P2;PMS_P1;PMS_P2;Temp;Humidity;BMP_temperature;BMP_pressure;BME280_temperature;BME280_humidity;BME280_pressure;Samples;Min_cycle;Max_cycle;Signal;HPM_P1;HPM_P2
2022/07/25 00:01:53;;;;;;;;;;;23.90;99.90;;;;;;8388053;28;19920;-66
2022/07/25 00:05:55;;;;;;;;;;;23.90;99.90;;;;;;8413412;28;19924;-66
2022/07/25 00:09:57;;;;;;;;;;;23.90;99.90;;;;;;8393066;28;19928;-66
2022/07/25 00:13:58;;;;;;;;;;;23.80;99.90;;;;;;8392866;28;19920;-66
2022/07/25 00:18:00;;;;;;;;;;;23.80;99.90;;;;;;8396404;28;19921;-66
2022/07/25 00:22:02;;;;;;;;;;;23.80;99.90;;;;;;8384206;28;19927;-66
2022/07/25 00:31:08;;;;;;;;;;;23.80;99.90;;;;;;8383430;28;20331;-66
2022/07/25 00:35:10;;;;;;;;;;;23.70;99.90;;;;;;8381964;28;19924;-66
2022/07/25 00:39:12;;;;;;;;;;;23.70;99.90;;;;;;8375267;28;19924;-66
2022/07/25 00:43:13;;;;;;;;;;;23.70;99.90;;;;;;8386442;28;19920;-66
2022/07/25 00:47:15;;;;;;;;;;;23.60;99.90;;;;;;8389159;28;19920;-66
2022/07/25 00:51:17;;;;;;;;;;;23.60;99.90;;;;;;8390581;28;19928;-66
2022/07/25 00:55:19;;;;;;;;;;;23.60;99.90;;;;;;8370736;28;19939;-66
2022/07/25 00:59:21;;;;;;;;;;;23.60;99.90;;;;;;8379973;28;20363;-66
2022/07/25 01:03:22;;;;;;;;;;;23.50;99.90;;;;;;8381161;28;20681;-66
2022/07/25 01:07:25;;;;;;;;;;;23.50;99.90;;;;;;8370900;28;20284;-66
2022/07/25 01:11:26;;;;;;;;;;;23.50;99.90;;;;;;8381729;28;19925;-66
2022/07/25 01:15:28;;;;;;;;;;;23.50;99.90;;;;;;8388589;28;20264;-66
2022/07/25 01:19:30;;;;;;;;;;;23.50;99.90;;;;;;8390999;28;19920;-66
2022/07/25 01:23:32;;;;;;;;;;;23.50;99.90;;;;;;8393570;28;19927;-66
2022/07/25 01:27:33;;;;;;;;;;;23.50;99.90;;;;;;8386017;28;19943;-66
2022/07/25 01:31:35;;;;;;;;;;;23.40;99.90;;;;;;8379514;28;20296;-66
2022/07/25 01:35:37;;;;;;;;;;;23.40;99.90;;;;;;8371167;28;19927;-66
2022/07/25 01:39:43;;;;;;;;;;;23.40;99.90;;;;;;8369772;28;19943;-66
2022/07/25 01:43:45;;;;;;;;;;;23.30;99.90;;;;;;8379219;28;19921;-66
2022/07/25 01:47:47;;;;;;;;;;;23.20;99.90;;;;;;8364419;28;20000;-66
2022/07/25 01:51:48;;;;;;;;;;;23.20;99.90;;;;;;8379158;28;19925;-66
2022/07/25 01:55:50;;;;;;;;;;;23.20;99.90;;;;;;8378174;28;19921;-66
2022/07/25 01:59:52;;;;;;;;;;;23.10;99.90;;;;;;8375952;28;19955;-66
2022/07/25 02:03:54;;;;;;;;;;;23.10;99.90;;;;;;8385684;28;19920;-66
2022/07/25 02:07:55;;;;;;;;;;;23.00;99.90;;;;;;8389212;28;19931;-66
2022/07/25 02:11:57;;;;;;;;;;;23.00;99.90;;;;;;8393345;28;19928;-66
2022/07/25 02:15:59;;;;;;;;;;;23.00;99.90;;;;;;8378155;28;19928;-66
2022/07/25 02:20:00;;;;;;;;;;;22.90;99.90;;;;;;8379238;28;19920;-66
2022/07/25 02:24:02;;;;;;;;;;;22.90;99.90;;;;;;8385954;28;19920;-66
2022/07/25 02:28:04;;;;;;;;;;;22.80;99.90;;;;;;8384316;28;19973;-66
2022/07/25 02:32:06;;;;;;;;;;;22.80;99.90;;;;;;8408627;28;19920;-66
2022/07/25 02:36:08;;;;;;;;;;;22.70;99.90;;;;;;8366258;28;19920;-66
2022/07/25 02:40:10;;;;;;;;;;;22.70;99.90;;;;;;8387624;28;19927;-66
2022/07/25 02:49:15;;;;;;;;;;;22.50;99.90;;;;;;8367502;28;20255;-66
2022/07/25 02:53:17;;;;;;;;;;;22.40;99.90;;;;;;8386227;28;20011;-66
2022/07/25 02:57:39;;;;;;;;;;;22.40;99.90;;;;;;8377832;28;20007;-66
2022/07/25 03:01:40;;;;;;;;;;;22.30;99.90;;;;;;8372853;28;20355;-66
2022/07/25 03:05:42;;;;;;;;;;;22.30;99.90;;;;;;8384471;28;19963;-66
2022/07/25 03:09:44;;;;;;;;;;;22.30;99.90;;;;;;8391092;28;19924;-66
2022/07/25 03:13:45;;;;;;;;;;;22.20;99.90;;;;;;8388233;28;19943;-66
2022/07/25 03:17:47;;;;;;;;;;;22.10;99.90;;;;;;8366609;28;19924;-66
2022/07/25 03:21:48;;;;;;;;;;;22.10;99.90;;;;;;8385474;28;19920;-66
2022/07/25 03:25:50;;;;;;;;;;;22.00;99.90;;;;;;8370735;28;19957;-66
2022/07/25 03:29:53;;;;;;;;;;;22.00;99.90;;;;;;8391208;28;19999;-66
2022/07/25 03:33:54;;;;;;;;;;;22.00;99.90;;;;;;8393766;28;19924;-66
2022/07/25 03:37:56;;;;;;;;;;;22.00;99.90;;;;;;8378392;28;20295;-66
2022/07/25 03:41:58;;;;;;;;;;;22.00;99.90;;;;;;8387772;28;19924;-66
2022/07/25 03:45:59;;;;;;;;;;;21.90;99.90;;;;;;8392472;28;20026;-66
2022/07/25 03:50:01;;;;;;;;;;;21.90;99.90;;;;;;8391227;28;20315;-66
2022/07/25 03:54:07;;;;;;;;;;;21.90;99.90;;;;;;8390298;28;19931;-66
2022/07/25 03:58:09;;;;;;;;;;;21.90;99.90;;;;;;8383146;28;20002;-66
2022/07/25 04:02:11;;;;;;;;;;;21.90;99.90;;;;;;8389935;28;19924;-66
2022/07/25 04:06:12;;;;;;;;;;;21.80;99.90;;;;;;8375319;28;19936;-66
2022/07/25 04:10:14;;;;;;;;;;;21.80;99.90;;;;;;8386444;28;20257;-66
2022/07/25 04:14:16;;;;;;;;;;;21.70;99.90;;;;;;8387531;28;19921;-66
2022/07/25 04:18:17;;;;;;;;;;;21.70;99.90;;;;;;8391828;28;20306;-66
2022/07/25 04:22:19;;;;;;;;;;;21.70;99.90;;;;;;8393766;28;19920;-66
2022/07/25 04:26:21;;;;;;;;;;;21.70;99.90;;;;;;8394697;28;19924;-66
2022/07/25 04:30:23;;;;;;;;;;;21.70;99.90;;;;;;8372506;28;19920;-66
2022/07/25 04:34:25;;;;;;;;;;;21.80;99.90;;;;;;8384083;28;19920;-66
2022/07/25 04:38:27;;;;;;;;;;;21.80;99.90;;;;;;8379172;28;20291;-66
2022/07/25 04:42:28;;;;;;;;;;;21.80;99.90;;;;;;8395913;28;20316;-66
2022/07/25 04:46:30;;;;;;;;;;;21.80;99.90;;;;;;8392419;28;19921;-66
2022/07/25 04:50:32;;;;;;;;;;;21.80;99.90;;;;;;8378733;28;19921;-66
2022/07/25 04:54:33;;;;;;;;;;;21.80;99.90;;;;;;8360223;28;19920;-66
2022/07/25 04:58:35;;;;;;;;;;;21.80;99.90;;;;;;8383929;28;19924;-66
2022/07/25 05:02:37;;;;;;;;;;;21.80;99.90;;;;;;8395172;28;19936;-66
2022/07/25 05:06:39;;;;;;;;;;;21.80;99.90;;;;;;8381675;28;19924;-66
2022/07/25 05:10:41;;;;;;;;;;;21.90;99.90;;;;;;8385928;28;19928;-66
2022/07/25 05:14:43;;;;;;;;;;;21.90;99.90;;;;;;8390281;28;19927;-66
2022/07/25 05:23:47;;;;;;;;;;;22.00;99.90;;;;;;8380794;28;20409;-66
2022/07/25 05:27:49;;;;;;;;;;;22.00;99.90;;;;;;8384575;28;20291;-66
2022/07/25 05:31:51;;;;;;;;;;;22.10;99.90;;;;;;8378961;28;20294;-66
2022/07/25 05:35:53;;;;;;;;;;;22.20;99.90;;;;;;8379379;28;20347;-66
2022/07/25 05:39:54;;;;;;;;;;;22.30;99.90;;;;;;8383678;28;20319;-66
2022/07/25 05:43:56;;;;;;;;;;;22.40;99.90;;;;;;8391607;28;19924;-66
2022/07/25 05:47:58;;;;;;;;;;;22.50;99.90;;;;;;8392326;28;19924;-66
2022/07/25 05:51:59;;;;;;;;;;;22.50;99.90;;;;;;8361187;28;19928;-66
2022/07/25 05:56:02;;;;;;;;;;;22.50;99.90;;;;;;8368235;28;19920;-66
2022/07/25 06:00:04;;;;;;;;;;;22.50;99.90;;;;;;8354373;28;19921;-66
2022/07/25 06:04:06;;;;;;;;;;;22.50;99.90;;;;;;8334599;28;19928;-66
2022/07/25 06:08:08;;;;;;;;;;;22.50;99.90;;;;;;8351959;28;19933;-66
2022/07/25 06:12:10;;;;;;;;;;;22.50;99.90;;;;;;8353320;28;19924;-66
2022/07/25 06:16:12;;;;;;;;;;;22.50;99.90;;;;;;8354742;28;19924;-66
2022/07/25 06:20:13;;;;;;;;;;;22.50;99.90;;;;;;8353510;28;20003;-66
2022/07/25 06:24:15;;;;;;;;;;;22.60;99.90;;;;;;8350831;28;19925;-66
2022/07/25 06:28:17;;;;;;;;;;;22.70;99.90;;;;;;8353014;28;19921;-66
2022/07/25 06:32:18;;;;;;;;;;;22.80;99.90;;;;;;8353495;28;19920;-66
2022/07/25 06:36:20;;;;;;;;;;;22.90;99.90;;;;;;8350611;28;19924;-66
2022/07/25 06:40:22;;;;;;;;;;;22.90;99.90;;;;;;8352093;28;20312;-66
2022/07/25 06:44:24;;;;;;;;;;;22.90;99.90;;;;;;8367877;28;20406;-66
2022/07/25 06:48:25;;;;;;;;;;;23.00;99.90;;;;;;8350931;28;19920;-66
2022/07/25 06:52:27;;;;;;;;;;;23.00;99.90;;;;;;8334468;28;19925;-66
2022/07/25 06:56:31;;;;;;;;;;;23.10;99.90;;;;;;8358709;28;19936;-66
2022/07/25 07:00:33;;;;;;;;;;;23.10;99.90;;;;;;8358502;28;19929;-66
2022/07/25 07:04:35;;;;;;;;;;;23.20;99.90;;;;;;8356624;28;19978;-66
2022/07/25 07:08:36;;;;;;;;;;;23.10;99.90;;;;;;8357093;28;19931;-66
2022/07/25 07:12:38;;;;;;;;;;;23.10;99.90;;;;;;8358209;28;20280;-66
2022/07/25 07:16:41;;;;;;;;;;;23.10;99.90;;;;;;8357940;28;19931;-66
2022/07/25 07:20:43;;;;;;;;;;;23.10;99.90;;;;;;8359033;28;19932;-66
2022/07/25 07:24:44;;;;;;;;;;;23.20;99.90;;;;;;8357178;28;20368;-66
2022/07/25 07:28:48;;;;;;;;;;;23.20;99.90;;;;;;8357392;28;24456;-66
2022/07/25 07:32:50;;;;;;;;;;;23.20;99.90;;;;;;8358200;28;19935;-66
2022/07/25 07:36:51;;;;;;;;;;;23.20;99.90;;;;;;8356384;28;20291;-66
2022/07/25 07:40:53;;;;;;;;;;;23.20;99.90;;;;;;8357367;28;19920;-66
2022/07/25 07:44:55;;;;;;;;;;;23.20;99.90;;;;;;8355195;28;20004;-66
2022/07/25 07:48:56;;;;;;;;;;;23.20;99.90;;;;;;8355992;28;19932;-66
2022/07/25 07:52:58;;;;;;;;;;;23.30;99.90;;;;;;8357903;28;19921;-66
2022/07/25 07:57:00;;;;;;;;;;;23.30;99.90;;;;;;8355756;28;19924;-66
2022/07/25 08:01:01;;;;;;;;;;;23.30;99.90;;;;;;8358946;28;19927;-66
2022/07/25 08:05:03;;;;;;;;;;;23.40;99.90;;;;;;8356565;28;19944;-66
2022/07/25 08:09:05;;;;;;;;;;;23.40;99.90;;;;;;8356230;28;19928;-66
2022/07/25 08:13:14;;;;;;;;;;;23.50;99.90;;;;;;8370917;28;19927;-66
2022/07/25 08:17:16;;;;;;;;;;;23.50;99.90;;;;;;8355015;28;19920;-66
2022/07/25 08:21:18;;;;;;;;;;;23.50;99.90;;;;;;8355249;28;19955;-66
2022/07/25 08:25:20;;;;;;;;;;;23.50;99.90;;;;;;8354776;28;19931;-66
2022/07/25 08:29:21;;;;;;;;;;;23.50;99.90;;;;;;8355781;28;19955;-66
2022/07/25 08:33:28;;;;;;;;;;;23.40;99.90;;;;;;8355185;28;24107;-66
2022/07/25 08:37:30;;;;;;;;;;;23.40;99.90;;;;;;8352959;28;20323;-66
2022/07/25 08:41:32;;;;;;;;;;;23.40;99.90;;;;;;8353535;28;19943;-66
2022/07/25 08:50:37;;;;;;;;;;;23.20;99.90;;;;;;8355197;28;19992;-66
2022/07/25 08:54:39;;;;;;;;;;;23.40;99.90;;;;;;8353375;28;19933;-66
2022/07/25 08:58:41;;;;;;;;;;;23.50;99.90;;;;;;8354394;28;19925;-66
2022/07/25 09:02:55;;;;;;;;;;;23.50;99.90;;;;;;8370785;28;19996;-66
2022/07/25 09:06:56;;;;;;;;;;;23.60;99.90;;;;;;8354283;28;20012;-65
2022/07/25 09:10:58;;;;;;;;;;;23.60;99.90;;;;;;8354113;28;19925;-66
2022/07/25 09:15:00;;;;;;;;;;;23.50;99.90;;;;;;8353190;28;19920;-66
2022/07/25 09:19:21;;;;;;;;;;;23.60;99.90;;;;;;8367955;28;19925;-66
2022/07/25 09:23:31;;;;;;;;;;;23.60;99.90;;;;;;8354342;28;19927;-66
2022/07/25 09:27:33;;;;;;;;;;;23.60;99.90;;;;;;8355933;28;19936;-66
2022/07/25 09:31:35;;;;;;;;;;;23.50;99.90;;;;;;8354755;28;24082;-66
2022/07/25 09:35:38;;;;;;;;;;;23.60;99.90;;;;;;8351392;28;19929;-66
2022/07/25 09:44:21;;;;;;;;;;;23.50;99.90;;;;;;8354190;28;19927;-66
2022/07/25 09:48:23;;;;;;;;;;;23.40;99.90;;;;;;8335394;28;19931;-66
2022/07/25 09:52:25;;;;;;;;;;;23.40;99.90;;;;;;8369490;28;20452;-66
2022/07/25 09:56:26;;;;;;;;;;;23.50;99.90;;;;;;8352985;28;20263;-66
2022/07/25 10:00:30;;;;;;;;;;;23.60;99.90;;;;;;8369175;28;20292;-66
2022/07/25 10:04:40;;;;;;;;;;;23.70;99.90;;;;;;8353283;28;19967;-66
2022/07/25 10:08:42;;;;;;;;;;;23.90;99.90;;;;;;8352858;28;20396;-66
2022/07/25 10:12:56;;;;;;;;;;;24.00;99.90;;;;;;8353023;28;19920;-66
2022/07/25 10:16:58;;;;;;;;;;;23.90;99.90;;;;;;8353345;28;20372;-66
2022/07/25 10:21:10;;;;;;;;;;;24.00;99.90;;;;;;8351358;28;19993;-66
2022/07/25 10:25:25;;;;;;;;;;;23.90;99.90;;;;;;8367248;28;19921;-66
2022/07/25 10:29:32;;;;;;;;;;;23.90;99.90;;;;;;8351313;28;19935;-66
2022/07/25 10:33:39;;;;;;;;;;;23.90;99.90;;;;;;8352531;28;20367;-66
2022/07/25 10:37:43;;;;;;;;;;;23.90;99.90;;;;;;8350711;28;19967;-66
2022/07/25 10:41:59;;;;;;;;;;;23.90;99.90;;;;;;8352749;28;19924;-66
2022/07/25 10:46:00;;;;;;;;;;;23.90;99.90;;;;;;8352760;28;19982;-66
2022/07/25 10:50:02;;;;;;;;;;;24.00;99.90;;;;;;8351671;28;19968;-66
2022/07/25 10:54:22;;;;;;;;;;;24.00;99.90;;;;;;8350550;28;19921;-66
2022/07/25 10:58:24;;;;;;;;;;;24.20;99.90;;;;;;8351951;28;20395;-65
2022/07/25 11:02:25;;;;;;;;;;;24.20;99.90;;;;;;8368632;28;19921;-65
2022/07/25 11:06:28;;;;;;;;;;;24.10;99.90;;;;;;8348042;28;20291;-66
2022/07/25 11:10:31;;;;;;;;;;;24.00;99.90;;;;;;8351292;28;19928;-66
2022/07/25 11:14:35;;;;;;;;;;;23.80;99.90;;;;;;8350252;28;19939;-66
2022/07/25 11:18:38;;;;;;;;;;;23.70;99.90;;;;;;8352667;28;19967;-66
2022/07/25 11:27:59;;;;;;;;;;;23.60;99.90;;;;;;8351827;28;24069;-65
2022/07/25 11:32:02;;;;;;;;;;;23.50;99.90;;;;;;8352330;28;19936;-67
2022/07/25 11:36:04;;;;;;;;;;;23.40;99.90;;;;;;8346751;28;19921;-68
2022/07/25 11:40:06;;;;;;;;;;;23.30;99.90;;;;;;8349720;28;20398;-68
2022/07/25 11:44:08;;;;;;;;;;;23.30;99.90;;;;;;8356104;28;19928;-68
2022/07/25 11:48:11;;;;;;;;;;;23.30;99.90;;;;;;8357393;28;19936;-68
2022/07/25 11:52:18;;;;;;;;;;;23.20;99.90;;;;;;8355616;28;25067;-68
2022/07/25 11:56:21;;;;;;;;;;;23.20;99.90;;;;;;8356686;28;19920;-68
2022/07/25 12:00:46;;;;;;;;;;;23.10;99.90;;;;;;8356369;28;20012;-68
2022/07/25 12:04:54;;;;;;;;;;;23.00;99.90;;;;;;8337664;28;19920;-67
2022/07/25 12:08:56;;;;;;;;;;;22.90;99.90;;;;;;8359801;28;19920;-67
2022/07/25 12:13:00;;;;;;;;;;;22.80;99.90;;;;;;8356039;28;19924;-68
2022/07/25 12:17:01;;;;;;;;;;;22.70;99.90;;;;;;8356224;28;19936;-68
2022/07/25 12:21:03;;;;;;;;;;;22.60;99.90;;;;;;8371754;28;19963;-68
2022/07/25 12:25:05;;;;;;;;;;;22.60;99.90;;;;;;8355672;28;19938;-68
2022/07/25 12:29:07;;;;;;;;;;;22.60;99.90;;;;;;8358602;28;19924;-68
2022/07/25 12:33:10;;;;;;;;;;;22.60;99.90;;;;;;8369153;28;20328;-68
2022/07/25 12:37:12;;;;;;;;;;;22.70;99.90;;;;;;8353351;28;19921;-68
2022/07/25 12:41:13;;;;;;;;;;;22.70;99.90;;;;;;8355183;28;25089;-68
2022/07/25 12:45:18;;;;;;;;;;;22.80;99.90;;;;;;8354720;28;19921;-68
2022/07/25 12:49:20;;;;;;;;;;;23.00;99.90;;;;;;8352983;28;20364;-68
2022/07/25 12:53:21;;;;;;;;;;;23.20;99.90;;;;;;8353019;28;19935;-68
2022/07/25 12:57:23;;;;;;;;;;;23.40;99.90;;;;;;8369161;28;19920;-68
2022/07/25 13:01:25;;;;;;;;;;;23.50;99.90;;;;;;8356282;28;19928;-68
2022/07/25 13:05:26;;;;;;;;;;;23.40;99.90;;;;;;8351674;28;19927;-68
2022/07/25 13:09:29;;;;;;;;;;;23.40;99.90;;;;;;8355076;28;19921;-68
2022/07/25 13:13:30;;;;;;;;;;;23.60;99.90;;;;;;8352877;28;20386;-67
2022/07/25 13:17:32;;;;;;;;;;;23.60;99.90;;;;;;8353388;28;20233;-67
2022/07/25 13:21:33;;;;;;;;;;;23.60;99.90;;;;;;8352824;28;20423;-67
2022/07/25 13:25:35;;;;;;;;;;;23.70;99.90;;;;;;8371303;28;19936;-68
2022/07/25 13:29:37;;;;;;;;;;;23.70;99.90;;;;;;8352746;28;20431;-67
2022/07/25 13:33:39;;;;;;;;;;;23.80;99.90;;;;;;8351901;28;19928;-68
2022/07/25 13:37:40;;;;;;;;;;;23.80;99.90;;;;;;8355031;28;19928;-67
2022/07/25 13:41:42;;;;;;;;;;;23.80;99.90;;;;;;8353495;28;19925;-68
2022/07/25 13:45:44;;;;;;;;;;;23.70;99.90;;;;;;8351299;28;19921;-67
2022/07/25 13:49:46;;;;;;;;;;;23.70;99.90;;;;;;8353364;28;19921;-67
2022/07/25 13:53:47;;;;;;;;;;;23.70;99.90;;;;;;8368523;28;19921;-67
2022/07/25 14:13:26;;;;;;;;;;;23.90;99.90;;;;;;8352125;28;24071;-68
2022/07/25 14:17:28;;;;;;;;;;;23.90;99.90;;;;;;8351180;28;20206;-68
2022/07/25 14:21:31;;;;;;;;;;;23.80;99.90;;;;;;8353782;28;19924;-68
2022/07/25 14:25:32;;;;;;;;;;;23.80;99.90;;;;;;8350594;28;20426;-67
2022/07/25 14:29:36;;;;;;;;;;;23.90;99.90;;;;;;8352091;28;20275;-68
2022/07/25 14:33:39;;;;;;;;;;;23.90;99.90;;;;;;8349488;28;19924;-68
2022/07/25 14:37:40;;;;;;;;;;;24.00;99.90;;;;;;8353114;28;19921;-68
2022/07/25 14:41:42;;;;;;;;;;;24.10;99.90;;;;;;8352897;28;19932;-68
2022/07/25 14:45:44;;;;;;;;;;;24.30;99.90;;;;;;8350059;28;19924;-68
2022/07/25 14:49:45;;;;;;;;;;;24.50;99.90;;;;;;8352637;28;19928;-68
2022/07/25 14:53:47;;;;;;;;;;;24.60;99.90;;;;;;8351106;28;19928;-68
2022/07/25 14:57:54;;;;;;;;;;;24.50;99.90;;;;;;8352693;28;19943;-68
2022/07/25 15:01:55;;;;;;;;;;;24.50;99.90;;;;;;8352341;28;19921;-67
2022/07/25 15:05:57;;;;;;;;;;;24.40;99.90;;;;;;8365814;28;25075;-68
2022/07/25 15:09:59;;;;;;;;;;;24.50;99.90;;;;;;8351539;28;19928;-68
2022/07/25 15:14:00;;;;;;;;;;;24.50;99.90;;;;;;8352221;28;19921;-68
2022/07/25 15:18:02;;;;;;;;;;;24.70;99.90;;;;;;8353538;28;19928;-68
2022/07/25 15:22:04;;;;;;;;;;;24.80;99.90;;;;;;8356800;28;19931;-68
2022/07/25 15:26:05;;;;;;;;;;;24.70;99.90;;;;;;8356596;28;25120;-68
2022/07/25 15:30:07;;;;;;;;;;;24.90;99.90;;;;;;8356499;28;19927;-68
2022/07/25 15:34:09;;;;;;;;;;;25.00;99.90;;;;;;8370293;28;20367;-68
2022/07/25 15:38:11;;;;;;;;;;;25.00;99.90;;;;;;8356385;28;25069;-68
2022/07/25 15:42:13;;;;;;;;;;;24.90;99.90;;;;;;8355845;28;19940;-68
2022/07/25 15:46:15;;;;;;;;;;;24.80;99.90;;;;;;8355147;28;19925;-68
2022/07/25 15:50:17;;;;;;;;;;;24.70;99.90;;;;;;8338693;28;19928;-68
2022/07/25 15:59:22;;;;;;;;;;;24.40;99.90;;;;;;8359096;28;20012;-67
2022/07/25 16:03:24;;;;;;;;;;;25.00;99.90;;;;;;8370033;28;19924;-67
2022/07/25 16:07:26;;;;;;;;;;;25.50;99.90;;;;;;8356743;28;20269;-68
2022/07/25 16:11:28;;;;;;;;;;;25.90;99.90;;;;;;8356400;28;19921;-68
2022/07/25 16:15:29;;;;;;;;;;;26.50;99.90;;;;;;8369451;28;19925;-68
2022/07/25 16:19:31;;;;;;;;;;;27.00;99.90;;;;;;8355636;28;20368;-68
2022/07/25 16:23:33;;;;;;;;;;;27.40;99.90;;;;;;8354674;28;20276;-68
2022/07/25 16:27:39;;;;;;;;;;;27.30;99.90;;;;;;8357074;28;19931;-68
2022/07/25 16:31:44;;;;;;;;;;;26.70;99.90;;;;;;8355217;28;19920;-68
2022/07/25 16:35:46;;;;;;;;;;;26.30;99.90;;;;;;8351226;28;19924;-68
2022/07/25 16:39:48;;;;;;;;;;;26.40;99.90;;;;;;8354008;28;19928;-67
2022/07/25 16:43:49;;;;;;;;;;;26.60;99.90;;;;;;8355198;28;19932;-68
2022/07/25 16:47:51;;;;;;;;;;;26.70;99.90;;;;;;8355748;28;19920;-68
2022/07/25 16:51:53;;;;;;;;;;;26.70;99.90;;;;;;8354927;28;20272;-67
2022/07/25 17:00:58;;;;;;;;;;;26.90;99.90;;;;;;8353930;28;22293;-68
2022/07/25 17:05:00;;;;;;;;;;;26.80;99.90;;;;;;8351080;28;19925;-68
2022/07/25 17:09:02;;;;;;;;;;;26.80;99.90;;;;;;8354039;28;19936;-68
2022/07/25 17:13:04;;;;;;;;;;;26.50;99.90;;;;;;8354709;28;20315;-68
2022/07/25 17:17:06;;;;;;;;;;;25.90;99.90;;;;;;8354008;28;20315;-68
2022/07/25 17:21:09;;;;;;;;;;;25.20;99.90;;;;;;8353800;28;19921;-67
2022/07/25 17:25:11;;;;;;;;;;;24.70;99.90;;;;;;8354439;28;19940;-68
2022/07/25 17:29:12;;;;;;;;;;;24.30;99.90;;;;;;8353295;28;20291;-68
2022/07/25 17:33:14;;;;;;;;;;;23.90;99.90;;;;;;8352752;28;19925;-68
2022/07/25 17:37:16;;;;;;;;;;;23.60;99.90;;;;;;8352056;28;20402;-68
2022/07/25 17:41:17;;;;;;;;;;;23.40;99.90;;;;;;8356256;28;19932;-68
2022/07/25 17:45:19;;;;;;;;;;;23.20;99.90;;;;;;8368445;28;20180;-67
2022/07/25 17:49:20;;;;;;;;;;;23.10;99.90;;;;;;8370332;28;19928;-68
2022/07/25 17:53:22;;;;;;;;;;;22.90;99.90;;;;;;8353334;28;20035;-68
2022/07/25 17:57:24;;;;;;;;;;;22.90;99.90;;;;;;8352729;28;20206;-68
2022/07/25 18:01:26;;;;;;;;;;;22.80;99.90;;;;;;8352965;28;19927;-68
2022/07/25 18:05:27;;;;;;;;;;;22.70;99.90;;;;;;8351960;28;19929;-68
2022/07/25 18:09:29;;;;;;;;;;;22.60;99.90;;;;;;8352709;28;20300;-68
2022/07/25 18:13:31;;;;;;;;;;;22.50;99.90;;;;;;8351845;28;20253;-68
2022/07/25 18:17:33;;;;;;;;;;;22.40;99.90;;;;;;8353541;28;19929;-68
2022/07/25 18:21:34;;;;;;;;;;;22.40;99.90;;;;;;8352617;28;19924;-68
2022/07/25 18:25:36;;;;;;;;;;;22.40;99.90;;;;;;8337007;28;19928;-68
2022/07/25 18:29:38;;;;;;;;;;;22.30;99.90;;;;;;8352227;28;19928;-67
2022/07/25 18:33:39;;;;;;;;;;;22.30;99.90;;;;;;8349801;28;19921;-68
2022/07/25 18:37:41;;;;;;;;;;;22.20;99.90;;;;;;8351333;28;19936;-68
2022/07/25 18:41:43;;;;;;;;;;;22.20;99.90;;;;;;8352114;28;19925;-68
2022/07/25 18:45:46;;;;;;;;;;;22.20;99.90;;;;;;8354125;28;20031;-68
2022/07/25 18:49:48;;;;;;;;;;;22.20;99.90;;;;;;8351167;28;19927;-68
2022/07/25 18:53:50;;;;;;;;;;;22.10;99.90;;;;;;8372178;28;19925;-68
2022/07/25 18:57:52;;;;;;;;;;;22.10;99.90;;;;;;8358845;28;19928;-68
2022/07/25 19:01:53;;;;;;;;;;;22.10;99.90;;;;;;8360416;28;19932;-68
2022/07/25 19:05:55;;;;;;;;;;;22.00;99.90;;;;;;8355414;28;19925;-68
2022/07/25 19:10:03;;;;;;;;;;;22.00;99.90;;;;;;8357974;28;20387;-68
2022/07/25 19:14:05;;;;;;;;;;;21.90;99.90;;;;;;8359079;28;20356;-68
2022/07/25 19:18:07;;;;;;;;;;;21.80;99.90;;;;;;8357816;28;19921;-68
2022/07/25 19:22:09;;;;;;;;;;;21.70;99.90;;;;;;8357405;28;19950;-68
2022/07/25 19:26:10;;;;;;;;;;;21.70;99.90;;;;;;8357404;28;19925;-68
2022/07/25 19:30:12;;;;;;;;;;;21.70;99.90;;;;;;8373836;28;20364;-68
2022/07/25 19:34:17;;;;;;;;;;;21.70;99.90;;;;;;8355172;28;20405;-68
2022/07/25 19:38:19;;;;;;;;;;;21.70;99.90;;;;;;8354373;28;19927;-68
2022/07/25 19:42:21;;;;;;;;;;;21.70;99.90;;;;;;8374286;28;19932;-68
2022/07/25 19:46:28;;;;;;;;;;;21.70;99.90;;;;;;8374816;28;19920;-68
2022/07/25 19:50:30;;;;;;;;;;;21.70;99.90;;;;;;8358820;28;19966;-68
2022/07/25 19:54:31;;;;;;;;;;;21.70;99.90;;;;;;8355144;28;20370;-68
2022/07/25 19:58:33;;;;;;;;;;;21.60;99.90;;;;;;8356931;28;19932;-68
2022/07/25 20:02:39;;;;;;;;;;;21.60;99.90;;;;;;8358305;28;20252;-67
2022/07/25 20:06:41;;;;;;;;;;;21.50;99.90;;;;;;8356444;28;19920;-68
2022/07/25 20:10:43;;;;;;;;;;;21.50;99.90;;;;;;8356553;28;19920;-68
2022/07/25 20:14:45;;;;;;;;;;;21.50;99.90;;;;;;8355051;28;19920;-68
2022/07/25 20:18:46;;;;;;;;;;;21.40;99.90;;;;;;8355597;28;19947;-68
2022/07/25 20:22:48;;;;;;;;;;;21.40;99.90;;;;;;8355470;28;20291;-68
2022/07/25 20:26:50;;;;;;;;;;;21.30;99.90;;;;;;8355564;28;19920;-68
2022/07/25 20:30:51;;;;;;;;;;;21.30;99.90;;;;;;8359166;28;19928;-68
2022/07/25 20:34:53;;;;;;;;;;;21.20;99.90;;;;;;8356099;28;19927;-68
2022/07/25 20:38:55;;;;;;;;;;;21.10;99.90;;;;;;8336944;28;19921;-68
2022/07/25 20:42:56;;;;;;;;;;;21.10;99.90;;;;;;8355210;28;20237;-68
2022/07/25 20:46:58;;;;;;;;;;;21.00;99.90;;;;;;8355927;28;19939;-68
2022/07/25 20:51:00;;;;;;;;;;;21.00;99.90;;;;;;8355848;28;19924;-68
2022/07/25 20:55:02;;;;;;;;;;;20.90;99.90;;;;;;8355547;28;19920;-68
2022/07/25 20:59:07;;;;;;;;;;;20.90;99.90;;;;;;8356171;28;19921;-68
2022/07/25 21:03:09;;;;;;;;;;;20.90;99.90;;;;;;8372863;28;20218;-68
2022/07/25 21:07:11;;;;;;;;;;;20.90;99.90;;;;;;8389513;28;19920;-68
2022/07/25 21:11:12;;;;;;;;;;;20.80;99.90;;;;;;8411783;28;20299;-68
2022/07/25 21:15:15;;;;;;;;;;;20.70;99.90;;;;;;8393730;28;19931;-68
2022/07/25 21:19:17;;;;;;;;;;;20.70;99.90;;;;;;8379032;28;19931;-68
2022/07/25 21:23:19;;;;;;;;;;;20.60;99.90;;;;;;8385959;28;20307;-68
2022/07/25 21:27:21;;;;;;;;;;;20.60;99.90;;;;;;8364074;28;19927;-68
2022/07/25 21:31:23;;;;;;;;;;;20.50;99.90;;;;;;8387752;28;19965;-68
2022/07/25 21:35:25;;;;;;;;;;;20.40;99.90;;;;;;8384416;28;19938;-67
2022/07/25 21:39:26;;;;;;;;;;;20.40;99.90;;;;;;8372970;28;19974;-67
2022/07/25 21:43:28;;;;;;;;;;;20.40;99.90;;;;;;8378737;28;19932;-68
2022/07/25 21:52:33;;;;;;;;;;;20.20;99.90;;;;;;8383776;28;20007;-68
2022/07/25 21:56:35;;;;;;;;;;;20.20;99.90;;;;;;8379991;28;19974;-68
2022/07/25 22:00:38;;;;;;;;;;;20.20;99.90;;;;;;8381574;28;19928;-68
2022/07/25 22:04:44;;;;;;;;;;;20.10;99.90;;;;;;8378736;28;19977;-68
2022/07/25 22:08:46;;;;;;;;;;;20.10;99.90;;;;;;8388579;28;19927;-68
2022/07/25 22:12:47;;;;;;;;;;;20.10;99.90;;;;;;8372429;28;19920;-68
2022/07/25 22:16:49;;;;;;;;;;;20.10;99.90;;;;;;8392117;28;20311;-68
2022/07/25 22:20:51;;;;;;;;;;;20.00;99.90;;;;;;8385341;28;19935;-68
2022/07/25 22:24:52;;;;;;;;;;;20.00;99.90;;;;;;8379218;28;19921;-68
2022/07/25 22:28:54;;;;;;;;;;;20.00;99.90;;;;;;8384732;28;20108;-68
2022/07/25 22:32:56;;;;;;;;;;;20.00;99.90;;;;;;8364755;28;20360;-67
2022/07/25 22:36:57;;;;;;;;;;;19.90;99.90;;;;;;8374531;28;19924;-68
2022/07/25 22:56:10;;;;;;;;;;;20.00;99.90;;;;;;8374826;28;20282;-68
2022/07/25 23:00:11;;;;;;;;;;;20.00;99.90;;;;;;8382629;28;20383;-68
2022/07/25 23:09:17;;;;;;;;;;;20.00;99.90;;;;;;8383927;28;19962;-68
2022/07/25 23:13:19;;;;;;;;;;;20.00;99.90;;;;;;8388886;28;19924;-68
2022/07/25 23:17:21;;;;;;;;;;;20.00;99.90;;;;;;8389526;28;19931;-68
2022/07/25 23:21:23;;;;;;;;;;;20.00;99.90;;;;;;8383138;28;20283;-68
2022/07/25 23:25:25;;;;;;;;;;;20.00;99.90;;;;;;8386631;28;20280;-68
2022/07/25 23:29:26;;;;;;;;;;;20.00;99.90;;;;;;8385001;28;19928;-68
2022/07/25 23:48:52;;;;;;;;;;;20.00;99.90;;;;;;8393597;28;19957;-68
2022/07/25 23:52:53;;;;;;;;;;;20.00;99.90;;;;;;8391827;28;19920;-68
2022/07/25 23:56:55;;;;;;;;;;;20.00;99.90;;;;;;8389951;28;19924;-68
